Flight Track Log - Related Links

Times and Time Zones

All times are in EST time to prevent confusion due to time zone crossing. See the C-GEJD flight status page for this flight to view local times or setup timezone preferences in your user account.

Time Position Orientation Groundspeed Altitude Reporting Facility
EST Latitude Longitude Course Direction KTS MPH feet Rate Location/Type
Sun 01:42:02 AM 21.1550 -70.2947 North 438 504 44,500  Level Miami Center
Sun 01:43:02 AM 21.2756 -70.2867 North 438 504 44,900 248 Climbing Miami Center
Sun 01:44:03 AM 21.3961 -70.2786 North 438 504 45,000 50 Climbing Miami Center
Sun 01:45:02 AM 21.5167 -70.2725 North 438 504 45,000  Level Miami Center
Sun 01:46:02 AM 21.6394 -70.2667 North 438 504 45,000  Level Miami Center
Sun 01:47:02 AM 21.7661 -70.2558 North 438 504 45,000  Level Miami Center
Sun 01:48:04 AM 21.8869 -70.2497 North 438 504 45,000  Level Miami Center
Sun 01:49:03 AM 22.0117 -70.2414 North 438 504 45,000  Level Miami Center
Sun 01:50:02 AM 22.1364 -70.2350 North 438 504 45,000  Level Miami Center
Sun 01:51:02 AM 22.2572 -70.2267 North 438 504 45,000  Level Miami Center
Sun 01:52:02 AM 22.3797 -70.2183 North 438 504 45,000  Level Miami Center
Sun 01:53:04 AM 22.5025 -70.2122 North 438 504 45,000  Level Miami Center
Sun 01:54:05 AM 22.6231 -70.2036 North 438 504 45,000  Level Miami Center
Sun 01:55:04 AM 22.7458 -70.1975 North 438 504 45,000  Level Miami Center
Sun 01:56:05 AM 22.8664 -70.1867 North 438 504 45,000  Level Miami Center
Sun 01:57:04 AM 22.9933 -70.1803 North 438 504 45,000  Level Miami Center
Sun 01:58:02 AM 23.1164 -70.1761 North 438 504 45,000  Level Miami Center
Sun 01:59:04 AM 23.2431 -70.1650 North 444 511 45,000  Level Miami Center
Sun 02:00:03 AM 23.3636 -70.1564 North 444 511 45,000  Level Miami Center
Sun 02:01:02 AM 23.4883 -70.1453 North 444 511 45,000  Level Miami Center
Sun 02:02:02 AM 23.6133 -70.1433 North 439 505 45,000  Level Miami Center
Sun 02:03:02 AM 23.7383 -70.1342 North 439 505 45,000  Level Miami Center
Sun 02:04:05 AM 23.8592 -70.1325 North 439 505 45,000  Level Miami Center
Sun 02:05:04 AM 23.9817 -70.1192 North 439 505 45,000  Level Miami Center
Sun 02:06:03 AM 24.1044 -70.1147 North 439 505 45,000  Level Miami Center
Sun 02:07:04 AM 24.2250 -70.1036 North 439 505 45,000  Level Miami Center
Sun 02:08:05 AM 24.3456 -70.0947 North 439 505 45,000  Level Miami Center
Sun 02:09:02 AM 24.4664 -70.0858 North 434 499 45,000  Level Miami Center
Sun 02:10:02 AM 24.5892 -70.0814 North 434 499 45,000  Level Miami Center
Sun 02:11:02 AM 24.7033 -70.0661 North 434 499 45,000  Level Miami Center
Sun 02:12:05 AM 24.8286 -70.0683 359° North 434 499 45,000  Level Miami Center
Sun 02:14:00 AM 25.0816 -70.0688 348° North  Level FlightAware Approximate
Sun 02:17:03 AM 25.0000 -70.0500 348° North 420 483 45,000  Level New York Oceanic (ODAPS)
Sun 02:21:00 AM 25.9960 -70.2811 348° North  Level FlightAware Approximate
Sun 02:22:00 AM 26.1266 -70.3117 348° North  Level FlightAware Approximate
Sun 02:23:00 AM 26.1477 -70.3179 348° North 420 483 45,000  Level FlightAware Transoceanic
Sun 02:24:00 AM 26.2624 -70.3450 348° North 420 483 45,000  Level FlightAware Transoceanic
Sun 02:25:00 AM 26.3772 -70.3721 348° North 420 483 45,000  Level FlightAware Transoceanic
Sun 02:26:00 AM 26.4919 -70.3993 348° North 420 483 45,000  Level FlightAware Transoceanic
Sun 02:27:00 AM 26.6066 -70.4265 348° North 420 483 45,000  Level FlightAware Transoceanic
Sun 02:28:00 AM 26.7213 -70.4538 348° North 420 483 45,000  Level FlightAware Transoceanic
Sun 02:29:00 AM 26.8361 -70.4812 348° North 420 483 45,000  Level FlightAware Transoceanic
Sun 02:30:00 AM 26.9508 -70.5086 348° North 420 483 45,000  Level FlightAware Transoceanic
Sun 02:31:00 AM 27.0655 -70.5360 348° North 420 483 45,000  Level FlightAware Transoceanic
Sun 02:32:00 AM 27.1802 -70.5636 348° North 420 483 45,000  Level FlightAware Transoceanic
Sun 02:33:00 AM 27.2949 -70.5911 348° North 420 483 45,000  Level FlightAware Transoceanic
Sun 02:34:00 AM 27.4096 -70.6188 348° North 420 483 45,000  Level FlightAware Transoceanic
Sun 02:35:00 AM 27.5242 -70.6465 348° North 420 483 45,000  Level FlightAware Transoceanic
Sun 02:36:00 AM 27.6389 -70.6742 348° North 420 483 45,000  Level FlightAware Transoceanic
Sun 02:37:00 AM 27.7536 -70.7020 348° North 420 483 45,000  Level FlightAware Transoceanic
Sun 02:38:00 AM 27.8683 -70.7299 348° North 420 483 45,000  Level FlightAware Transoceanic
Sun 02:39:00 AM 27.9829 -70.7578 348° North 420 483 45,000  Level FlightAware Transoceanic
Sun 02:40:00 AM 28.0976 -70.7858 348° North 420 483 45,000  Level FlightAware Transoceanic
Sun 02:41:00 AM 28.2122 -70.8138 348° North 420 483 45,000  Level FlightAware Transoceanic
Sun 02:42:00 AM 28.3269 -70.8419 348° North 420 483 45,000  Level FlightAware Transoceanic
Sun 02:43:00 AM 28.4415 -70.8701 348° North 420 483 45,000  Level FlightAware Transoceanic
Sun 02:44:00 AM 28.5561 -70.8983 348° North 420 483 45,000  Level FlightAware Transoceanic
Sun 02:45:00 AM 28.6708 -70.9266 348° North 420 483 45,000  Level FlightAware Transoceanic
Sun 02:46:00 AM 28.7854 -70.9549 348° North 420 483 45,000  Level FlightAware Transoceanic
Sun 02:47:00 AM 28.9000 -70.9833 348° North 420 483 45,000  Level FlightAware Transoceanic
Sun 02:48:00 AM 29.0131 -71.0111 348° North 420 483 45,000  Level FlightAware Transoceanic
Sun 02:49:00 AM 29.1262 -71.0389 348° North 420 483 45,000  Level FlightAware Transoceanic
Sun 02:49:45 AM 28.9000 -70.9833 348° North 397 457 45,000  Level New York Oceanic (ODAPS)
Sun 02:50:00 AM 29.2393 -71.0668 348° North 420 483 45,000  Level FlightAware Transoceanic
Sun 02:51:00 AM 29.3524 -71.0948 348° North 420 483 45,000  Level FlightAware Transoceanic
Sun 02:52:00 AM 29.4655 -71.1228 348° North 420 483 45,000  Level FlightAware Transoceanic
Sun 02:53:00 AM 29.5785 -71.1509 348° North 420 483 45,000  Level FlightAware Transoceanic
Sun 02:54:00 AM 29.6916 -71.1791 348° North 420 483 45,000  Level FlightAware Transoceanic
Sun 02:55:00 AM 29.7662 -71.1977 348° North 397 457 45,000  Level FlightAware Transoceanic
Sun 02:56:00 AM 29.8744 -71.2247 348° North 397 457 45,000  Level FlightAware Transoceanic
Sun 02:57:00 AM 29.9827 -71.2518 348° North 397 457 45,000  Level FlightAware Transoceanic
Sun 02:58:00 AM 30.0909 -71.2790 348° North 397 457 45,000  Level FlightAware Transoceanic
Sun 02:59:00 AM 30.1991 -71.3063 348° North 397 457 45,000  Level FlightAware Transoceanic
Sun 03:00:00 AM 30.3073 -71.3335 348° North 397 457 45,000  Level FlightAware Transoceanic
Sun 03:01:00 AM 30.4156 -71.3609 348° North 397 457 45,000  Level FlightAware Transoceanic
Sun 03:02:00 AM 30.5238 -71.3883 348° North 397 457 45,000  Level FlightAware Transoceanic
Sun 03:03:00 AM 30.6320 -71.4158 348° North 397 457 45,000  Level FlightAware Transoceanic
Sun 03:04:00 AM 30.7402 -71.4433 348° North 397 457 45,000  Level FlightAware Transoceanic
Sun 03:05:00 AM 30.8484 -71.4709 348° North 397 457 45,000  Level FlightAware Transoceanic
Sun 03:06:00 AM 30.9566 -71.4986 348° North 397 457 45,000  Level FlightAware Transoceanic
Sun 03:07:00 AM 31.0648 -71.5263 348° North 397 457 45,000  Level FlightAware Transoceanic
Sun 03:08:00 AM 31.1729 -71.5541 348° North 397 457 45,000  Level FlightAware Transoceanic
Sun 03:09:00 AM 31.2811 -71.5819 348° North 397 457 45,000  Level FlightAware Transoceanic
Sun 03:10:00 AM 31.3893 -71.6098 348° North 397 457 45,000  Level FlightAware Transoceanic
Sun 03:11:00 AM 31.4974 -71.6378 348° North 397 457 45,000  Level FlightAware Transoceanic
Sun 03:12:00 AM 31.6056 -71.6658 348° North 397 457 45,000  Level FlightAware Transoceanic
Sun 03:13:00 AM 31.7137 -71.6939 348° North 397 457 45,000  Level FlightAware Transoceanic
Sun 03:14:00 AM 31.8219 -71.7221 348° North 397 457 45,000  Level FlightAware Transoceanic
Sun 03:15:00 AM 31.9300 -71.7504 347° North 397 457 45,000  Level FlightAware Transoceanic
Sun 03:16:00 AM 32.0381 -71.7786 347° North 397 457 45,000  Level FlightAware Transoceanic
Sun 03:17:00 AM 32.1463 -71.8070 347° North 397 457 45,000  Level FlightAware Transoceanic
Sun 03:18:00 AM 32.2544 -71.8355 347° North 397 457 45,000  Level FlightAware Transoceanic
Sun 03:19:00 AM 32.3625 -71.8640 347° North 397 457 45,000  Level FlightAware Transoceanic
Sun 03:20:00 AM 32.4706 -71.8925 347° North 397 457 45,000  Level FlightAware Transoceanic
Sun 03:21:00 AM 32.5787 -71.9212 347° North 397 457 45,000  Level FlightAware Transoceanic
Sun 03:22:00 AM 32.6868 -71.9499 347° North 397 457 45,000  Level FlightAware Transoceanic
Sun 03:23:00 AM 32.7949 -71.9787 347° North 397 457 45,000  Level FlightAware Transoceanic
Sun 03:24:00 AM 32.9029 -72.0075 347° North 397 457 45,000  Level FlightAware Transoceanic
Sun 03:25:00 AM 33.0110 -72.0365 347° North 397 457 45,000  Level FlightAware Transoceanic
Sun 03:26:00 AM 33.1191 -72.0654 347° North 397 457 45,000  Level FlightAware Transoceanic
Sun 03:27:00 AM 33.2271 -72.0945 347° North 397 457 45,000  Level FlightAware Transoceanic
Sun 03:28:00 AM 33.3352 -72.1236 347° North 397 457 45,000  Level FlightAware Transoceanic
Sun 03:29:00 AM 33.4432 -72.1528 347° North 397 457 45,000  Level FlightAware Transoceanic
Sun 03:30:00 AM 33.5513 -72.1821 347° North 397 457 45,000  Level FlightAware Transoceanic
Sun 03:31:00 AM 33.6593 -72.2115 347° North 397 457 45,000  Level FlightAware Transoceanic
Sun 03:32:00 AM 33.7673 -72.2409 347° North 397 457 45,000  Level FlightAware Transoceanic
Sun 03:33:00 AM 33.8753 -72.2704 347° North 397 457 45,000  Level FlightAware Transoceanic
Sun 03:34:00 AM 33.9833 -72.3000 355° North 397 457 45,000  Level FlightAware Transoceanic
Sun 03:34:51 AM 34.2325 -72.3242 355° North 442 509 45,000  Level New York Center
Sun 03:35:00 AM 34.1019 -72.3128 355° North 397 457 45,000  Level FlightAware Transoceanic
Sun 03:35:51 AM 34.3389 -72.3286 358° North 432 497 45,000  Level New York Center
Sun 03:36:00 AM 34.2204 -72.3257 355° North 397 457 45,000  Level FlightAware Transoceanic
Sun 03:36:51 AM 34.4533 -72.3386 356° North 422 486 45,000  Level New York Center
Sun 03:37:00 AM 34.3389 -72.3386 355° North 397 457 45,000  Level FlightAware Transoceanic
Sun 03:37:51 AM 34.5747 -72.3081 12° North 422 486 45,000  Level New York Center
Sun 03:38:00 AM 34.4574 -72.3515 355° North 397 457 45,000  Level FlightAware Transoceanic
Sun 03:38:51 AM 34.6803 -72.2194 35° Northeast 410 472 45,000  Level New York Center
Sun 03:39:00 AM 34.5759 -72.3644 355° North 397 457 45,000  Level FlightAware Transoceanic
Sun 03:39:51 AM 34.7958 -72.1483 27° Northeast 439 505 45,000  Level New York Center
Sun 03:40:51 AM 34.9192 -72.1353 North 439 505 45,000  Level New York Center
Sun 03:41:51 AM 35.0339 -72.1422 357° North 428 493 45,000  Level New York Center
Sun 03:42:51 AM 35.1547 -72.1444 359° North 428 493 45,000 -50 Level New York Center
Sun 03:43:51 AM 35.2736 -72.1467 359° North 416 479 44,900  Descending New York Center
Sun 03:44:51 AM 35.3967 -72.1436 North 423 487 45,000 50 Climbing New York Center
Sun 03:45:51 AM 35.5094 -72.1483 358° North 418 481 45,000  Level New York Center
Sun 03:46:51 AM 35.6325 -72.1481 360° North 418 481 45,000  Level New York Center
Sun 03:47:51 AM 35.7492 -72.1528 358° North 417 480 45,000  Level New York Center
Sun 03:48:51 AM 35.8764 -72.1497 North 427 491 45,000  Level New York Center
Sun 03:49:51 AM 35.9933 -72.1547 358° North 427 491 45,000  Level New York Center
Sun 03:50:51 AM 36.1164 -72.1542 360° North 427 491 45,000  Level New York Center
Sun 03:51:51 AM 36.2372 -72.1564 359° North 427 491 45,000  Level New York Center
Sun 03:52:51 AM 36.3606 -72.1536 North 433 498 45,000  Level New York Center
Sun 03:53:51 AM 36.4772 -72.1583 358° North 438 504 45,000  Level New York Center
Sun 03:54:51 AM 36.5983 -72.1606 359° North 431 496 45,000  Level New York Center
Sun 03:55:51 AM 36.7128 -72.1681 357° North 420 483 45,000  Level New York Center
Sun 03:56:51 AM 36.8397 -72.1911 352° North 427 491 45,000  Level New York Center
Sun 03:57:51 AM 36.9586 -72.2117 352° North 427 491 45,000  Level New York Center
Sun 03:58:51 AM 37.0792 -72.2297 353° North 427 491 45,000  Level New York Center
Sun 03:59:51 AM 37.2042 -72.2503 353° North 434 499 45,000  Level New York Center
Sun 04:00:51 AM 37.3208 -72.2683 353° North 427 491 45,000  Level New York Center
Sun 04:01:51 AM 37.4414 -72.2867 353° North 423 487 45,000  Level New York Center
Sun 04:02:51 AM 37.5622 -72.3047 353° North 430 495 45,000  Level New York Center
Sun 04:03:51 AM 37.6603 -72.3094 358° North 421 484 45,000  Level New York Center
Sun 04:04:51 AM 37.7808 -72.3331 351° North 421 484 45,000  Level New York Center
Sun 04:05:51 AM 37.9017 -72.3464 355° North 427 491 45,000  Level New York Center
Sun 04:06:51 AM 38.0225 -72.3675 352° North 432 497 45,000  Level New York Center
Sun 04:07:51 AM 38.1431 -72.3886 352° North 432 497 45,000  Level New York Center
Sun 04:08:51 AM 38.2617 -72.4072 353° North 432 497 45,000  Level New York Center
Sun 04:09:51 AM 38.3825 -72.4258 353° North 432 497 45,000  Level New York Center
Sun 04:10:51 AM 38.4989 -72.4417 354° North 427 491 45,000  Level New York Center
Sun 04:11:51 AM 38.6175 -72.4631 352° North 427 491 45,000  Level New York Center
Sun 04:12:51 AM 38.7339 -72.4872 351° North 427 491 45,000  Level New York Center
Sun 04:13:51 AM 38.8506 -72.5008 355° North 427 491 45,000  Level New York Center
Sun 04:14:51 AM 38.9669 -72.5222 352° North 427 491 45,000  Level New York Center
Sun 04:15:51 AM 39.0833 -72.5414 353° North 427 491 45,000  Level New York Center
Sun 04:16:51 AM 39.2000 -72.5603 353° North 422 486 45,000  Level New York Center
Sun 04:17:51 AM 39.3164 -72.5794 353° North 422 486 45,000  Level New York Center
Sun 04:18:51 AM 39.4350 -72.5958 354° North 428 493 45,000  Level New York Center
Sun 04:19:51 AM 39.5533 -72.6178 352° North 428 493 45,000  Level New York Center
Sun 04:20:51 AM 39.6739 -72.6372 353° North 428 493 45,000  Level New York Center
Sun 04:22:51 AM 39.9153 -72.6783 353° North 434 499 45,000  Level Boston Center
Sun 04:23:49 AM 40.0367 -72.6986 353° North 437 503 45,000  Level Boston Center
Sun 04:24:51 AM 40.1578 -72.7178 353° North 438 504 45,000  Level Boston Center
Sun 04:25:49 AM 40.2839 -72.7386 353° North 437 503 45,000  Level Boston Center
Sun 04:26:49 AM 40.4047 -72.7586 353° North 437 503 45,000  Level Boston Center
Sun 04:27:50 AM 40.5267 -72.7797 353° North 440 506 45,000  Level Boston Center
Sun 04:28:51 AM 40.6481 -72.7997 353° North 439 505 45,000  Level Boston Center
Sun 04:29:50 AM 40.7731 -72.8206 353° North 439 505 45,000  Level Boston Center
Sun 04:30:50 AM 40.8942 -72.8431 352° North 440 506 45,000  Level Boston Center
Sun 04:31:50 AM 41.0158 -72.8647 352° North 441 507 45,000  Level Boston Center
Sun 04:32:50 AM 41.1386 -72.8836 353° North 438 504 45,000  Level Boston Center
Sun 04:33:50 AM 41.2553 -72.9011 354° North 433 498 45,000  Level Boston Center
Sun 04:34:51 AM 41.3775 -72.9231 352° North 432 497 45,000  Level Boston Center
Sun 04:35:52 AM 41.4981 -72.9444 352° North 436 502 45,000  Level Boston Center
Sun 04:36:51 AM 41.6150 -72.9642 353° North 436 502 45,000  Level Boston Center
Sun 04:37:51 AM 41.7350 -72.9858 352° North 436 502 45,000  Level Boston Center
Sun 04:38:51 AM 41.8550 -73.0053 353° North 435 501 45,000  Level Boston Center
Sun 04:39:51 AM 41.9758 -73.0267 353° North 438 504 45,000  Level Boston Center
Sun 04:40:54 AM 42.0953 -73.0478 353° North 436 502 45,000  Level Boston Center
Sun 04:41:52 AM 42.2186 -73.0697 352° North 436 502 45,000  Level Boston Center
Sun 04:42:52 AM 42.3400 -73.0908 353° North 442 509 45,000  Level Boston Center
Sun 04:43:52 AM 42.4639 -73.1106 353° North 430 495 45,000  Level Boston Center
Sun 04:44:53 AM 42.5642 -73.1294 352° North 428 493 45,000  Level Boston Center
Sun 04:45:52 AM 42.6869 -73.1519 352° North 438 504 45,000  Level Boston Center
Sun 04:46:52 AM 42.8089 -73.1739 352° North 440 506 45,000  Level Boston Center
Sun 04:47:53 AM 42.9300 -73.1958 352° North 439 505 45,000  Level Boston Center
Sun 04:48:53 AM 43.0506 -73.2183 352° North 439 505 45,000  Level Boston Center
Sun 04:49:53 AM 43.1711 -73.2403 352° North 437 503 45,000  Level Boston Center
Sun 04:50:53 AM 43.2911 -73.2628 352° North 436 502 45,000  Level Boston Center
Sun 04:51:53 AM 43.4281 -73.2892 352° North 436 502 45,000  Level Boston Center
Sun 04:52:54 AM 43.5481 -73.3094 353° North 434 499 45,000  Level Boston Center
Sun 04:53:54 AM 43.6664 -73.3319 352° North 431 496 45,000 -1,200 Level Boston Center
Sun 04:54:54 AM 43.7875 -73.3544 352° North 437 503 42,600 -2,650 Descending Boston Center
Sun 04:55:54 AM 43.9061 -73.3764 352° North 432 497 39,700 -2,829 Descending Boston Center
Sun 04:56:57 AM 44.0264 -73.3989 352° North 434 499 36,800 -2,900 Descending Boston Center
Sun 04:57:54 AM 44.1425 -73.4208 352° North 423 487 33,900 -2,898 Descending Boston Center
Sun 04:58:55 AM 44.2556 -73.4439 352° North 413 475 31,100 -2,826 Descending Boston Center
Sun 04:59:55 AM 44.3672 -73.4972 341° North 419 482 28,200 -2,900 Descending Boston Center
Sun 05:00:55 AM 44.4778 -73.5517 341° North 417 480 25,300 -2,950 Descending Boston Center
Sun 05:01:55 AM 44.5925 -73.6061 341° North 429 494 22,300 -2,900 Descending Boston Center
Sun 05:02:55 AM 44.7022 -73.6575 342° North 414 476 19,500 -2,488 Descending Boston Center
Sun 05:03:58 AM 44.8044 -73.7056 342° North 387 445 17,200 -2,380 Descending Boston Center
Sun 05:04:56 AM 44.9003 -73.7503 342° North 362 417 14,700 -2,441 Descending Boston Center
Sun 05:05:56 AM 44.9864 -73.7914 341° North 326 375 12,400 -2,417 Descending Boston Center
Sun 05:07:20 AM 45.0833 -73.8333 343° North 290 334 8,900 -1,958 Descending Montreal Center
Sun 05:08:20 AM 45.1500 -73.8833 332° Northwest 250 288 7,700 -1,600 Descending Montreal Center
Sun 05:09:20 AM 45.2167 -73.9000 350° North 260 299 5,700 -1,850 Descending Montreal Center
Sun 05:10:20 AM 45.2833 -73.9000 360° North 260 299 4,000 -1,350 Descending Montreal Center
Sun 05:11:20 AM 45.3500 -73.8500 28° Northeast 230 265 3,000 -1,050 Descending Montreal Center
Sun 05:12:20 AM 45.3833 -73.8000 46° Northeast 200 230 1,900 -1,100 Descending Montreal Center
Sun 05:13:20 AM 45.4167 -73.7667 35° Northeast 140 161 800 -600 Descending Montreal Center
Sun 05:15:20 AM 45.4667 -73.7167 35° Northeast 30 35 100 -233 Descending Montreal Center
Sun 05:16:20 AM 45.4667 -73.7000 90° East 10 12 100  Level Montreal Center

Login

Don't have an account? Register now (free) for customized features, flight alerts, and more!